小松飛行場の過去48時間の天気

小松飛行場 (Kanazawa/Komatsu)

現在時刻: 7/17 18:33 JST (7/17 09:33 UTC) 以下の時間は現地時間です。

過去48時間のMETAR気象情報
時間 風向 風速(m/s) 視程 気温(℃) 湿度(%) 気圧(hPa) 天気現象
17 18:00 北北西 3 9000m 29 62 1010
17 17:00 北西 3 10km以上 30 59 1010
17 16:00 北西 2 10km以上 31 46 1010
17 15:00 北西 3 10km以上 31 59 1011
17 14:00 北西 3 10km以上 31 62 1011
17 13:00 北西 4 10km以上 30 66 1011
17 12:00 北西 4 10km以上 31 62 1011
17 11:00 北西 4 10km以上 30 62 1012
17 10:00 西北西 4 10km以上 30 62 1012
17 09:00 不定 1 10km以上 30 62 1012
17 08:00 南南東 2 10km以上 28 66 1012
17 07:00 南南西 2 10km以上 26 79 1012
17 06:00 南東 2 10km以上 25 83 1012
17 05:00 不定 1 10km以上 25 83 1012
17 04:00 2 10km以上 24 89 1012
17 03:00 不定 1 10km以上 25 89 1012
17 02:00 2 10km以上 25 89 1011
17 01:00 2 10km以上 25 94 1011
17 00:00 3 10km以上 26 84 1011
16 23:00 2 10km以上 27 74 1012
16 22:00 不定 1 10km以上 28 58 1012
16 21:00 1 10km以上 29 52 1012
16 20:00 不定 1 10km以上 29 52 1012
16 19:00 2 10km以上 30 46 1011
16 18:00 北西 3 10km以上 30 46 1011
16 17:00 北北西 2 10km以上 31 46 1011
16 16:00 北西 3 10km以上 31 52 1011
16 15:00 北西 5 10km以上 32 52 1011
16 14:00 西北西 5 10km以上 32 43 1011
16 13:00 北西 4 10km以上 32 52 1011
16 12:00 北北西 4 10km以上 32 56 1012
16 11:00 北西 3 10km以上 31 55 1012
16 10:00 北北西 2 10km以上 31 59 1012
16 09:00 不定 1 10km以上 30 62 1012
16 08:00 不定 1 10km以上 29 70 1013
16 07:00 不定 1 10km以上 27 79 1013
16 06:00 南南東 2 10km以上 25 89 1013
16 05:00 南東 2 9000m 25 89 1012
RJNK 170900Z 33005KT 290V010 9000 FEW020CB BKN240 29/21 Q1010
RJNK 170800Z 31006KT 9999 FEW020 BKN240 30/21 Q1010
RJNK 170700Z 32004KT 270V360 9999 FEW020 BKN240 31/18 Q1010
RJNK 170600Z 32006KT 270V360 9999 FEW020 BKN240 31/22 Q1011
RJNK 170500Z 31006KT 280V350 9999 FEW020 BKN240 31/23 Q1011
RJNK 170400Z 32007KT 280V360 9999 FEW020 BKN240 30/23 Q1011
RJNK 170300Z 32007KT 9999 FEW020 BKN240 31/23 Q1011
RJNK 170200Z 31008KT 9999 FEW020 BKN240 30/22 Q1012
RJNK 170100Z 30007KT 9999 FEW030 BKN240 30/22 Q1012
RJNK 170000Z VRB02KT 9999 FEW030 BKN240 30/22 Q1012
RJNK 162300Z 15003KT 130V190 9999 FEW030 BKN240 28/21 Q1012
RJNK 162200Z 21003KT 190V250 9999 FEW030 BKN050 BKN240 26/22 Q1012
RJNK 162100Z 13003KT 9999 FEW180 BKN240 25/22 Q1012
RJNK 162000Z VRB02KT 9999 FEW050 SCT240 25/22 Q1012
RJNK 161900Z 18003KT 150V210 9999 FEW050 SCT/// 24/22 Q1012
RJNK 161800Z VRB02KT 9999 FEW050 BKN/// 25/23 Q1012
RJNK 161700Z 17004KT 9999 FEW050 BKN/// 25/23 Q1011
RJNK 161600Z 18004KT 9999 FEW050 BKN/// 25/24 Q1011
RJNK 161500Z 19005KT 9999 FEW050 SCT/// 26/23 Q1011
RJNK 161400Z 18003KT 9999 FEW050 SCT/// 27/22 Q1012
RJNK 161300Z VRB01KT 9999 FEW050 SCT/// 28/19 Q1012
RJNK 161200Z 01002KT 9999 FEW050 SCT/// 29/18 Q1012
RJNK 161100Z VRB02KT 9999 FEW050 BKN/// 29/18 Q1012
RJNK 161000Z 35004KT 290V020 9999 FEW050 BKN280 30/17 Q1011
RJNK 160900Z 31005KT 9999 FEW050 BKN280 30/17 Q1011
RJNK 160800Z 33003KT 280V030 9999 FEW050 SCT280 31/18 Q1011
RJNK 160700Z 31005KT 260V350 9999 FEW050 BKN280 31/20 Q1011
RJNK 160600Z 31009KT 9999 FEW050 BKN280 32/21 Q1011
RJNK 160500Z 29009KT 9999 FEW050 BKN280 32/18 Q1011
RJNK 160400Z 31007KT 9999 FEW050 BKN280 32/21 Q1011
RJNK 160300Z 33007KT 9999 FEW050 BKN280 32/22 Q1012
RJNK 160200Z 31005KT 9999 FEW180 BKN280 31/21 Q1012
RJNK 160100Z 33004KT 260V010 9999 FEW050 SCT280 31/22 Q1012
RJNK 160000Z VRB02KT 9999 FEW050 BKN280 30/22 Q1012
RJNK 152300Z VRB01KT 9999 FEW030 BKN280 29/23 Q1013
RJNK 152200Z VRB02KT 9999 FEW030 SCT280 27/23 Q1013
RJNK 152100Z 16003KT 9999 FEW030 SCT050 BKN280 25/23 Q1013
RJNK 152000Z 14003KT 120V180 9000 FEW030 SCT280 25/23 Q1012